logo tempoitalia

Diretta Meteo Burley, Stati Uniti (USA)domenica 30 agosto ore 23:53

Mappa
Sereno 11 °C Sereno 24 Ore: T.min 11 T.max 22
Ponente Sud-Ovest Km/h 11.1 Punto di rugiada: 4 °C Umidità: 61% Visibilità: 10 Km
Il sole sorge alle: 06:58 Il sole tramonta alle: 20:12
30 Agosto 2026 23:53 tempo osservato: Sereno Sereno 11 61 1018 vento: Nord SO 11.1
30 Agosto 2026 22:53 tempo osservato: Sereno Sereno 13 50 1018 vento: Nord S 13
30 Agosto 2026 21:53 tempo osservato: Sereno Sereno 15 41 1018 vento: Nord O/SO 11.1
30 Agosto 2026 20:53 tempo osservato: Sereno Sereno 17 31 1017 vento: Nord SO 7.4
30 Agosto 2026 19:53 tempo osservato: Sereno Sereno 19 25 1017 vento: Nord O/SO 11.1
30 Agosto 2026 18:53 tempo osservato: Sereno Sereno 22 19 1017 vento: Nord O/SO 9.3
30 Agosto 2026 17:53 tempo osservato: Sereno Sereno 22 21 1018 vento: Nord O 13
30 Agosto 2026 16:53 tempo osservato: Sereno Sereno 22 21 1018 vento: Nord O 14.8
30 Agosto 2026 15:53 tempo osservato: Sereno Sereno 22 23 1019 vento: Nord O/SO 20.3
30 Agosto 2026 14:53 tempo osservato: Sereno Sereno 21 24 1019 vento: Nord O 13
30 Agosto 2026 13:53 tempo osservato: Sereno Sereno 19 32 1019 vento: Nord O 13
30 Agosto 2026 12:53 tempo osservato: Sereno Sereno 19 34 1020 vento: Nord O 13
30 Agosto 2026 11:53 tempo osservato: Sereno Sereno 17 36 1020 vento: Nord O 22.2
30 Agosto 2026 10:53 tempo osservato: Sereno Sereno 16 36 1020 vento: Nord O 25.9
30 Agosto 2026 09:53 tempo osservato: Sereno Sereno 15 38 1020 vento: Nord O 22.2
30 Agosto 2026 08:53 tempo osservato: Sereno Sereno 14 41 1020 vento: Nord O/SO 20.3
30 Agosto 2026 07:53 tempo osservato: Sereno Sereno 13 43 1019 vento: Nord O/SO 35.2
30 Agosto 2026 06:53 tempo osservato: Sereno Sereno 12 46 1018 vento: Nord SO 18.5
30 Agosto 2026 05:53 tempo osservato: Sereno Sereno 13 43 1018 vento: Nord O/SO 18.5
30 Agosto 2026 04:53 tempo osservato: Sereno Sereno 13 47 1017 vento: Nord N 0
30 Agosto 2026 03:53 tempo osservato: Sereno Sereno 15 44 1016 vento: Nord O 22.2
30 Agosto 2026 02:53 tempo osservato: Sereno Sereno 16 51 1015 vento: Nord O 25.9
30 Agosto 2026 01:53 tempo osservato: Sereno Sereno 16 63 1014 vento: Nord S 7.4
30 Agosto 2026 00:53 tempo osservato: Sereno Sereno 14 82 1014 vento: Nord N 0